Latest Coastal Weather Observations for Wynyard

IDT60701

Issued at 4:52 am EDT Sunday 25 October 2020 (issued every 10 minutes, with the page automatically refreshed every 10 minutes)

About coastal observations | Map of coastal stations | Coastal observations for TAS | Marine services | Other Formats
Station Details ID: 091107 Name: WYNYARD AIRPORT Lat: -41.00 Lon: 145.73 Height: 12.0 m
Data from the previous 72 hours. | See also: Recent months at Wynyard
Date/Time
EDT
Wind Sea
Height
m
Swell Vis
km
Cloud Weather Temp
°C
Press
MSL
hPa
Rain since
9am
mm
Dir  Spd
kts
Gust
kts
Height
m
Period
s
Dir
25/04:30am S 11 17 - - - - 10 - - 5.6 1016.1 0.0
25/04:00am SSW 8 20 - - - - 10 - - 5.5 1015.4 0.0
25/03:30am S 7 13 - - - - 10 - - 5.6 1015.1 0.0
25/03:00am S 6 11 - - - - 10 - - 5.6 1014.7 0.0
25/02:30am SSW 6 12 - - - - 10 - - 6.3 1014.1 0.0
25/02:00am SSW 10 15 - - - - 10 - - 6.1 1013.4 0.0
25/01:30am SSW 11 19 - - - - 10 - - 6.3 1013.1 0.0
25/01:01am SSW 15 25 - - - - 10 - - 6.6 1013.1 0.0
25/01:00am SSW 14 25 - - - - 10 - - 6.5 1013.1 0.0
25/12:30am SSW 13 17 - - - - 10 - - 6.7 1012.7 0.0
25/12:00am SSW 13 21 - - - - 10 - - 6.8 1012.6 0.0
 
Date/Time
EDT
Wind Sea
Height
m
Swell Vis
km
Cloud Weather Temp
°C
Press
MSL
hPa
Rain since
9am
mm
Dir  Spd
kts
Gust
kts
Height
m
Period
s
Dir
24/11:30pm SW 17 24 - - - - 10 - - 7.1 1012.4 0.0
24/11:00pm SW 14 19 - - - - 10 - - 7.0 1012.4 0.0
24/10:30pm SSW 12 17 - - - - 10 - - 7.4 1011.9 0.0
24/10:00pm SW 14 20 - - - - 10 - - 8.0 1011.5 0.0
24/09:30pm SW 10 15 - - - - 10 - - 7.9 1010.9 0.0
24/09:00pm SW 9 11 - - - - 10 - - 8.1 1010.3 0.0
24/08:30pm SW 12 18 - - - - 10 - - 8.7 1009.7 0.0
24/08:00pm SW 11 15 - - - - 10 - - 8.9 1009.1 0.0
24/07:30pm WSW 11 15 - - - - 10 - - 9.3 1008.4 0.0
24/07:00pm SW 16 23 - - - - 10 Partly cloudy - 10.5 1007.9 0.0
24/06:30pm SSW 12 18 - - - - 10 Partly cloudy - 11.2 1007.2 0.0
24/06:00pm WSW 18 25 - - - - 10 Mostly clear - 13.1 1006.5 0.0
24/05:50pm WSW 17 27 - - - - 10 Partly cloudy - 13.5 1006.4 0.0
24/05:30pm SW 14 19 - - - - 10 Partly cloudy - 14.3 1006.1 0.0
24/05:12pm SW 15 25 - - - - 10 Partly cloudy - 14.4 1005.9 0.0
24/05:00pm SW 17 23 - - - - 10 - - 14.8 1005.8 0.0
24/04:43pm WSW 17 27 - - - - 10 - - 14.8 1005.6 0.0
24/04:30pm WSW 20 27 - - - - 10 Partly cloudy - 14.9 1005.5 0.0
24/04:00pm SW 16 22 - - - - 10 - - 14.9 1005.5 0.0
24/03:30pm SSW 16 23 - - - - 10 Partly cloudy - 13.3 1005.5 0.0
24/03:00pm WSW 15 23 - - - - 10 Mostly clear - 15.2 1005.1 0.0
24/02:37pm SW 15 25 - - - - 10 Partly cloudy - 14.5 1005.2 0.0
24/02:30pm SW 18 26 - - - - 10 Partly cloudy - 14.5 1005.1 0.0
24/02:02pm SW 16 26 - - - - 10 Partly cloudy - 14.7 1004.9 0.0
24/02:00pm SW 16 21 - - - - 10 Partly cloudy - 14.6 1004.9 0.0
24/01:58pm WSW 16 26 - - - - 10 Partly cloudy - 15.2 1004.8 0.0
24/01:30pm WSW 16 24 - - - - 10 Partly cloudy - 15.0 1004.4 0.0
24/01:00pm SW 16 28 - - - - 10 Partly cloudy - 15.5 1004.1 0.0
24/12:30pm SW 15 22 - - - - 10 Partly cloudy - 14.7 1004.2 0.0
24/12:00pm SW 16 22 - - - - 10 Cloudy - 14.9 1004.2 0.0
24/11:30am SW 16 23 - - - - 10 Partly cloudy - 14.3 1004.0 0.0
24/11:00am SW 14 20 - - - - 10 Partly cloudy - 13.9 1003.7 0.0
24/10:30am SW 15 22 - - - - 10 Partly cloudy - 13.8 1003.5 0.0
24/10:00am WSW 13 19 - - - - 10 Partly cloudy - 14.4 1003.2 0.0
24/09:39am SW 15 25 - - - - 10 - - 13.6 1003.2 0.0
24/09:30am SW 17 24 - - - - 10 - - 13.1 1003.2 0.0
24/09:00am SW 13 17 - - - - 10 Mostly cloudy - 11.9 1003.2 12.4
24/08:30am SW 11 16 - - - - 10 - - 11.4 1003.1 12.4
24/08:00am SW 8 11 - - - - 10 - - 11.1 1002.9 12.4
24/07:30am WNW 9 13 - - - - 10 - - 10.0 1002.7 12.4
24/07:00am W 8 11 - - - - 10 - - 9.6 1002.8 12.4
24/06:30am W 8 10 - - - - 10 - - 9.5 1002.3 12.4
24/06:00am W 5 6 - - - - 10 Cloudy - 9.8 1002.2 12.4
24/05:30am WNW 5 7 - - - - 10 - - 10.7 1002.3 12.4
24/05:00am WNW 5 7 - - - - 10 Partly cloudy - 11.2 1002.3 12.4
24/04:30am WNW 5 7 - - - - 10 Partly cloudy - 11.5 1002.3 12.4
24/04:00am WNW 5 5 - - - - 10 Partly cloudy - 11.8 1002.6 12.2
24/03:30am W 5 6 - - - - 10 Cloudy - 11.8 1002.6 12.0
24/03:00am W 5 6 - - - - 10 Cloudy - 11.9 1002.6 11.8
24/02:30am W 5 6 - - - - 10 Cloudy - 12.0 1002.7 11.8
24/02:00am W 4 6 - - - - 10 Partly cloudy - 12.0 1003.1 11.8
24/01:50am W 5 7 - - - - 10 Cloudy - 12.1 1003.4 11.8
24/01:30am W 5 7 - - - - 4 Partly cloudy - 12.2 1003.7 11.8
24/01:00am W 3 4 - - - - 4 Cloudy - 12.2 1004.2 11.4
24/12:30am W 2 4 - - - - 3 Partly cloudy - 12.4 1004.3 11.0
24/12:00am CALM 0 0 - - - - 2 Cloudy Rain 12.4 1004.7 10.6
 
Date/Time
EDT
Wind Sea
Height
m
Swell Vis
km
Cloud Weather Temp
°C
Press
MSL
hPa
Rain since
9am
mm
Dir  Spd
kts
Gust
kts
Height
m
Period
s
Dir
23/11:30pm CALM 0 0 - - - - 2 Partly cloudy - 12.4 1005.0 10.2
23/11:00pm WSW 3 3 - - - - 4 Partly cloudy - 12.5 1005.3 9.8
23/10:30pm CALM 0 0 - - - - 3 Partly cloudy - 12.5 1005.7 9.0
23/10:00pm CALM 0 3 - - - - 5 Cloudy - 12.6 1006.2 8.0
23/09:59pm CALM 0 3 - - - - 5 Cloudy - 12.6 1006.2 8.0
23/09:40pm CALM 0 0 - - - - 8 Cloudy - 12.6 1006.1 8.0
23/09:30pm CALM 0 2 - - - - 5 Cloudy - 12.6 1005.9 7.8
23/09:23pm SSW 2 3 - - - - 5 Cloudy - 12.6 1005.9 7.6
23/09:12pm SSW 1 3 - - - - 7 Partly cloudy - 12.6 1005.9 7.6
23/09:00pm SSW 2 3 - - - - 5 Cloudy Recent precip. 12.6 1006.0 7.6
23/08:35pm NW 1 4 - - - - 3 Partly cloudy - 12.7 1006.3 7.4
23/08:30pm NW 2 4 - - - - 3 Partly cloudy - 12.7 1006.3 7.4
23/08:25pm NW 3 4 - - - - 3 Partly cloudy - 12.7 1006.4 7.2
23/08:05pm WNW 3 4 - - - - 5 Cloudy - 12.9 1006.3 6.8
23/08:01pm WNW 3 4 - - - - 6 Cloudy - 12.9 1006.3 6.8
23/08:00pm WNW 3 4 - - - - 7 Cloudy - 12.9 1006.3 6.8
23/07:48pm WNW 4 4 - - - - 5 Cloudy - 12.9 1006.1 6.8
23/07:30pm W 4 5 - - - - 10 Partly cloudy - 13.0 1005.9 6.8
23/07:25pm W 4 5 - - - - 10 Partly cloudy - 13.1 1006.0 6.8
23/07:00pm CALM 0 0 - - - - 10 Cloudy - 13.3 1005.7 6.8
23/06:30pm CALM 0 0 - - - - 10 Partly cloudy - 13.2 1005.8 6.8
23/06:05pm NNE 5 5 - - - - 10 Partly cloudy - 13.1 1005.8 6.8
23/06:00pm NNE 5 5 - - - - 10 Cloudy - 13.2 1005.9 6.8
23/05:40pm NNE 5 6 - - - - 10 Partly cloudy - 13.3 1005.9 6.8
23/05:30pm NNE 4 5 - - - - 10 Partly cloudy - 13.2 1006.1 6.8
23/05:14pm NNE 5 7 - - - - 10 Partly cloudy - 13.4 1006.0 6.8
23/05:00pm NNE 5 7 - - - - 4 Partly cloudy - 13.5 1006.1 6.8
23/04:49pm NNE 6 8 - - - - 5 Partly cloudy - 13.6 1006.1 6.8
23/04:30pm NNE 6 8 - - - - 10 Cloudy - 13.0 1006.5 6.8
23/04:00pm NNE 7 10 - - - - 10 Partly cloudy - 13.3 1006.5 6.8
23/03:30pm NNE 8 11 - - - - 10 Partly cloudy - 13.1 1007.1 6.8
23/03:00pm NE 7 8 - - - - 10 Cloudy - 13.4 1007.4 6.6
23/02:30pm ENE 6 9 - - - - 10 Cloudy - 13.2 1007.4 6.6
23/02:00pm NE 6 8 - - - - 10 Partly cloudy - 13.7 1007.8 6.6
23/01:30pm NE 6 8 - - - - 10 Partly cloudy - 13.3 1008.2 6.6
23/01:00pm ENE 4 5 - - - - 6 Cloudy - 12.8 1008.8 6.6
23/12:30pm ENE 2 4 - - - - 7 Cloudy - 12.5 1009.1 5.8
23/12:00pm ESE 6 9 - - - - 8 Cloudy Rain 12.4 1009.2 4.8
23/11:30am E 7 10 - - - - 10 Cloudy - 12.1 1009.5 4.0
23/11:00am ENE 5 8 - - - - 10 Partly cloudy - 12.1 1010.2 3.2
23/10:30am ENE 7 9 - - - - 10 Cloudy - 12.1 1010.3 2.6
23/10:01am ENE 7 9 - - - - 10 Partly cloudy - 12.0 1010.6 1.8
23/10:00am ENE 7 9 - - - - 10 Partly cloudy - 12.0 1010.6 1.8
23/09:30am ENE 7 9 - - - - 9 Partly cloudy - 12.1 1010.6 0.8
23/09:00am ENE 7 11 - - - - 10 Cloudy - 12.3 1010.7 0.0
23/08:30am E 7 10 - - - - 10 Partly cloudy - 12.4 1010.7 0.0
23/08:00am ENE 6 9 - - - - 10 Partly cloudy - 12.3 1011.2 0.0
23/07:30am SE 2 4 - - - - 10 Partly cloudy - 11.3 1011.2 0.0
23/07:00am SSE 4 4 - - - - 10 Partly cloudy - 10.6 1011.0 0.0
23/06:30am SSE 5 5 - - - - 10 Partly cloudy - 10.1 1010.9 0.0
23/06:00am SSE 5 6 - - - - 10 Cloudy - 9.7 1010.7 0.0
23/05:30am SE 1 3 - - - - 10 Partly cloudy - 9.7 1010.6 0.0
23/05:00am SSE 3 4 - - - - 10 - - 9.3 1010.9 0.0
23/04:30am SW 3 4 - - - - 10 - - 8.6 1011.2 0.0
23/04:00am S 3 4 - - - - 10 - - 9.2 1011.2 0.0
23/03:30am S 3 4 - - - - 10 - - 9.2 1011.1 0.0
23/03:00am SSE 4 5 - - - - 10 Mostly cloudy - 9.8 1011.5 0.0
23/02:30am SSE 4 5 - - - - 10 Partly cloudy - 9.6 1012.0 0.0
23/02:29am SSE 4 5 - - - - 10 Partly cloudy - 9.6 1012.0 0.0
23/02:00am SSE 1 3 - - - - 10 Partly cloudy - 10.2 1013.1 0.0
23/01:30am SSE 3 5 - - - - 10 Cloudy - 9.9 1013.2 0.0
23/01:00am S 4 6 - - - - 10 Partly cloudy - 9.9 1013.9 0.0
23/12:45am SSE 5 6 - - - - 10 Partly cloudy - 9.7 1014.1 0.0
23/12:44am SSE 5 6 - - - - 10 Partly cloudy - 9.6 1014.1 0.0
23/12:30am SSE 5 6 - - - - 10 Partly cloudy - 9.5 1014.3 0.0
23/12:00am SSE 4 6 - - - - 10 Cloudy - 10.0 1014.5 0.0
 
Date/Time
EDT
Wind Sea
Height
m
Swell Vis
km
Cloud Weather Temp
°C
Press
MSL
hPa
Rain since
9am
mm
Dir  Spd
kts
Gust
kts
Height
m
Period
s
Dir
22/11:51pm SE 5 6 - - - - 10 Partly cloudy - 10.0 1014.5 0.0
22/11:48pm SE 5 6 - - - - 10 Partly cloudy - 9.9 1014.4 0.0
22/11:30pm SE 5 5 - - - - 10 Partly cloudy - 9.4 1014.6 0.0
22/11:25pm SE 4 5 - - - - 10 Partly cloudy - 9.5 1014.6 0.0
22/11:13pm SE 4 5 - - - - 10 Partly cloudy - 9.3 1014.7 0.0
22/11:08pm SSE 3 4 - - - - 10 Partly cloudy - 9.2 1014.8 0.0
22/11:00pm SSE 2 3 - - - - 10 Partly cloudy - 9.5 1015.1 0.0
22/10:44pm SSW 1 4 - - - - 10 Partly cloudy - 9.8 1015.1 0.0
22/10:30pm SSW 1 5 - - - - 10 Partly cloudy - 9.7 1015.2 0.0
22/10:00pm CALM 0 0 - - - - 10 - - 9.6 1015.2 0.0
22/09:30pm CALM 0 3 - - - - 10 - - 10.1 1015.5 0.0
22/09:00pm SSE 3 4 - - - - 10 Cloudy - 10.2 1015.0 0.0
22/08:30pm CALM 0 0 - - - - 10 - - 10.8 1014.7 0.0
22/08:00pm CALM 0 0 - - - - 10 - - 11.7 1014.6 0.0
22/07:30pm E 4 5 - - - - 10 - - 12.3 1014.5 0.0
22/07:00pm ENE 4 5 - - - - 10 - - 12.7 1014.5 0.0
22/06:30pm NE 4 5 - - - - 10 - - 13.1 1014.6 0.0
22/06:00pm NNE 4 6 - - - - 10 Mostly cloudy - 13.4 1014.7 0.0
22/05:30pm NNE 6 9 - - - - 10 - - 14.4 1014.5 0.0
22/05:00pm NE 5 7 - - - - 10 - - 14.6 1014.3 0.0
22/04:30pm NE 5 7 - - - - 10 - - 14.9 1014.3 0.0
22/04:00pm NE 7 10 - - - - 10 - - 14.9 1014.3 0.0
22/03:30pm NE 6 9 - - - - 10 - - 14.3 1015.0 0.0
22/03:00pm NE 8 10 - - - - 10 - - 14.7 1015.3 0.0
22/02:30pm NE 9 12 - - - - 10 - - 15.2 1015.6 0.0
22/02:00pm NE 9 11 - - - - 10 Partly cloudy - 15.2 1015.5 0.0
22/01:30pm NE 10 12 - - - - 10 Partly cloudy - 15.2 1015.6 0.0
22/01:00pm ENE 10 13 - - - - 10 - - 15.5 1015.7 0.0
22/12:30pm ENE 10 13 - - - - 10 - - 15.2 1016.0 0.0
22/12:00pm ENE 9 11 - - - - 10 - - 15.1 1016.2 0.0
22/11:30am ENE 10 14 - - - - 10 - - 15.5 1016.4 0.0
22/11:00am ENE 9 13 - - - - 10 - - 15.3 1016.3 0.0
22/10:30am E 9 13 - - - - 10 - - 14.9 1016.3 0.0
22/10:00am E 9 13 - - - - 10 - - 15.1 1016.5 0.0
22/09:30am E 9 14 - - - - 10 - - 14.6 1016.5 0.0
22/09:00am E 9 12 - - - - 10 - - 14.7 1016.4 0.0
22/08:30am ESE 6 9 - - - - 10 - - 14.6 1016.1 0.0
22/08:00am SSE 5 7 - - - - 10 - - 13.2 1015.9 0.0
22/07:30am SSE 4 6 - - - - 10 - - 11.4 1015.7 0.0
22/07:00am SSW 5 5 - - - - 10 Partly cloudy - 8.7 1015.4 0.0
22/06:30am WSW 5 6 - - - - 10 Partly cloudy - 7.7 1015.3 0.0
22/06:00am W 4 5 - - - - 10 Partly cloudy - 8.6 1015.0 0.0
22/05:30am W 5 6 - - - - 10 Cloudy - 8.7 1014.9 0.0
22/05:00am W 5 6 - - - - 10 Cloudy - 8.5 1014.4 0.0

Other formats

Comma delimited format used in spreadsheet applications
http://www.bom.gov.au/fwo/IDT60701/IDT60701.95957.axf

JavaScript Object Notation format (JSON) in row-major order
http://www.bom.gov.au/fwo/IDT60701/IDT60701.95957.json

Data quality

Most of these data are generated automatically and are frequently updated. Quality checks on data are not normally performed. It is possible for incorrect values to appear. Refer to information at About Latest Weather Observations and please check the disclaimer before using these data.